sensor_id;sensor_type;location;lat;lon;timestamp;pressure;altitude;pressure_sealevel;temperature;humidity
35023;BME280;21214;44.912;8.204;2023-02-19T00:00:01;100596.28;;;4.82;100.00
35023;BME280;21214;44.912;8.204;2023-02-19T00:02:26;100591.38;;;4.76;100.00
35023;BME280;21214;44.912;8.204;2023-02-19T00:04:51;100591.22;;;4.79;100.00
35023;BME280;21214;44.912;8.204;2023-02-19T00:07:17;100583.38;;;4.79;100.00
35023;BME280;21214;44.912;8.204;2023-02-19T00:09:42;100585.13;;;4.78;100.00
35023;BME280;21214;44.912;8.204;2023-02-19T00:12:07;100578.41;;;4.90;100.00
35023;BME280;21214;44.912;8.204;2023-02-19T00:14:33;100574.59;;;4.80;100.00
35023;BME280;21214;44.912;8.204;2023-02-19T00:16:58;100576.72;;;4.89;100.00
35023;BME280;21214;44.912;8.204;2023-02-19T00:19:23;100575.06;;;4.88;100.00
35023;BME280;21214;44.912;8.204;2023-02-19T00:21:52;100569.97;;;4.85;100.00
35023;BME280;21214;44.912;8.204;2023-02-19T00:24:18;100568.97;;;4.87;100.00
35023;BME280;21214;44.912;8.204;2023-02-19T00:26:43;100566.25;;;4.89;100.00
35023;BME280;21214;44.912;8.204;2023-02-19T00:29:14;100560.88;;;4.92;100.00
35023;BME280;21214;44.912;8.204;2023-02-19T00:31:40;100558.59;;;4.86;100.00
35023;BME280;21214;44.912;8.204;2023-02-19T00:34:06;100555.97;;;4.86;100.00
35023;BME280;21214;44.912;8.204;2023-02-19T00:36:32;100559.19;;;4.91;100.00
35023;BME280;21214;44.912;8.204;2023-02-19T00:39:00;100555.13;;;4.85;100.00
35023;BME280;21214;44.912;8.204;2023-02-19T00:41:25;100562.63;;;4.76;100.00
35023;BME280;21214;44.912;8.204;2023-02-19T00:43:52;100558.97;;;4.78;100.00
35023;BME280;21214;44.912;8.204;2023-02-19T00:46:20;100558.97;;;4.63;100.00
35023;BME280;21214;44.912;8.204;2023-02-19T00:48:46;100555.56;;;4.61;100.00
35023;BME280;21214;44.912;8.204;2023-02-19T00:51:12;100559.97;;;4.60;100.00
35023;BME280;21214;44.912;8.204;2023-02-19T00:53:38;100552.00;;;4.46;100.00
35023;BME280;21214;44.912;8.204;2023-02-19T00:56:04;100553.91;;;4.42;100.00
35023;BME280;21214;44.912;8.204;2023-02-19T00:58:29;100545.47;;;4.37;100.00
35023;BME280;21214;44.912;8.204;2023-02-19T01:00:55;100553.00;;;4.43;100.00
35023;BME280;21214;44.912;8.204;2023-02-19T01:03:21;100552.84;;;4.46;100.00
35023;BME280;21214;44.912;8.204;2023-02-19T01:05:49;100552.84;;;4.46;100.00
35023;BME280;21214;44.912;8.204;2023-02-19T01:08:15;100553.78;;;4.45;100.00
35023;BME280;21214;44.912;8.204;2023-02-19T01:10:41;100553.41;;;4.36;100.00
35023;BME280;21214;44.912;8.204;2023-02-19T01:13:06;100547.19;;;4.21;100.00
35023;BME280;21214;44.912;8.204;2023-02-19T01:15:32;100546.28;;;4.05;100.00
35023;BME280;21214;44.912;8.204;2023-02-19T01:17:59;100543.22;;;3.97;100.00
35023;BME280;21214;44.912;8.204;2023-02-19T01:20:24;100539.69;;;3.98;100.00
35023;BME280;21214;44.912;8.204;2023-02-19T01:22:50;100548.44;;;4.14;100.00
35023;BME280;21214;44.912;8.204;2023-02-19T01:25:16;100530.44;;;4.08;100.00
35023;BME280;21214;44.912;8.204;2023-02-19T01:27:41;100540.22;;;4.04;100.00
35023;BME280;21214;44.912;8.204;2023-02-19T01:30:07;100538.91;;;4.13;100.00
35023;BME280;21214;44.912;8.204;2023-02-19T01:32:32;100537.84;;;4.17;100.00
35023;BME280;21214;44.912;8.204;2023-02-19T01:34:57;100532.91;;;4.28;100.00
35023;BME280;21214;44.912;8.204;2023-02-19T01:37:23;100526.66;;;4.31;100.00
35023;BME280;21214;44.912;8.204;2023-02-19T01:39:48;100529.91;;;4.36;100.00
35023;BME280;21214;44.912;8.204;2023-02-19T01:42:14;100535.34;;;4.31;100.00
35023;BME280;21214;44.912;8.204;2023-02-19T01:47:07;100534.28;;;4.35;100.00
35023;BME280;21214;44.912;8.204;2023-02-19T01:49:34;100533.44;;;4.35;100.00
35023;BME280;21214;44.912;8.204;2023-02-19T01:52:08;100527.81;;;4.25;100.00
35023;BME280;21214;44.912;8.204;2023-02-19T01:54:38;100524.06;;;4.13;100.00
35023;BME280;21214;44.912;8.204;2023-02-19T01:57:06;100525.75;;;4.15;100.00
35023;BME280;21214;44.912;8.204;2023-02-19T01:59:32;100529.22;;;4.15;100.00
35023;BME280;21214;44.912;8.204;2023-02-19T02:01:58;100522.31;;;4.14;100.00
35023;BME280;21214;44.912;8.204;2023-02-19T02:04:24;100519.03;;;4.10;100.00
35023;BME280;21214;44.912;8.204;2023-02-19T02:06:53;100517.00;;;4.16;100.00
35023;BME280;21214;44.912;8.204;2023-02-19T02:09:21;100516.16;;;4.15;100.00
35023;BME280;21214;44.912;8.204;2023-02-19T02:12:05;100514.03;;;4.06;100.00
35023;BME280;21214;44.912;8.204;2023-02-19T02:14:33;100510.19;;;3.96;100.00
35023;BME280;21214;44.912;8.204;2023-02-19T02:22:23;100510.66;;;3.87;100.00
35023;BME280;21214;44.912;8.204;2023-02-19T02:32:25;100493.25;;;3.70;100.00
35023;BME280;21214;44.912;8.204;2023-02-19T02:34:59;100492.09;;;3.76;100.00
35023;BME280;21214;44.912;8.204;2023-02-19T02:37:25;100499.13;;;3.74;100.00
35023;BME280;21214;44.912;8.204;2023-02-19T02:39:52;100499.91;;;3.58;100.00
35023;BME280;21214;44.912;8.204;2023-02-19T02:42:19;100498.94;;;3.42;100.00
35023;BME280;21214;44.912;8.204;2023-02-19T02:48:10;100488.19;;;3.31;100.00
35023;BME280;21214;44.912;8.204;2023-02-19T02:53:13;100488.59;;;3.23;100.00
35023;BME280;21214;44.912;8.204;2023-02-19T02:55:59;100482.06;;;3.32;100.00
35023;BME280;21214;44.912;8.204;2023-02-19T02:58:26;100481.22;;;3.32;100.00
35023;BME280;21214;44.912;8.204;2023-02-19T03:01:03;100484.75;;;3.30;100.00
35023;BME280;21214;44.912;8.204;2023-02-19T03:03:56;100489.22;;;3.28;100.00
35023;BME280;21214;44.912;8.204;2023-02-19T03:06:24;100492.97;;;3.23;100.00
35023;BME280;21214;44.912;8.204;2023-02-19T03:08:55;100484.41;;;3.19;100.00
35023;BME280;21214;44.912;8.204;2023-02-19T03:11:22;100483.97;;;3.11;100.00
35023;BME280;21214;44.912;8.204;2023-02-19T03:14:17;100485.22;;;3.03;100.00
35023;BME280;21214;44.912;8.204;2023-02-19T03:17:09;100489.88;;;2.77;100.00
35023;BME280;21214;44.912;8.204;2023-02-19T03:19:57;100480.28;;;2.97;100.00
35023;BME280;21214;44.912;8.204;2023-02-19T03:22:26;100471.41;;;3.01;100.00
35023;BME280;21214;44.912;8.204;2023-02-19T03:25:04;100459.44;;;2.97;100.00
35023;BME280;21214;44.912;8.204;2023-02-19T03:27:50;100463.81;;;2.77;100.00
35023;BME280;21214;44.912;8.204;2023-02-19T03:30:18;100460.47;;;2.75;100.00
35023;BME280;21214;44.912;8.204;2023-02-19T03:33:06;100463.81;;;2.77;100.00
35023;BME280;21214;44.912;8.204;2023-02-19T03:35:52;100453.97;;;2.84;100.00
35023;BME280;21214;44.912;8.204;2023-02-19T03:38:41;100456.66;;;2.82;100.00
35023;BME280;21214;44.912;8.204;2023-02-19T03:41:15;100449.47;;;2.87;100.00
35023;BME280;21214;44.912;8.204;2023-02-19T03:44:07;100453.75;;;2.88;100.00
35023;BME280;21214;44.912;8.204;2023-02-19T03:49:17;100458.59;;;2.77;100.00
35023;BME280;21214;44.912;8.204;2023-02-19T03:52:32;100468.06;;;2.80;100.00
35023;BME280;21214;44.912;8.204;2023-02-19T04:02:17;100453.03;;;2.85;100.00
35023;BME280;21214;44.912;8.204;2023-02-19T04:04:48;100455.28;;;2.93;100.00
35023;BME280;21214;44.912;8.204;2023-02-19T04:07:14;100456.72;;;2.81;100.00
35023;BME280;21214;44.912;8.204;2023-02-19T04:09:42;100454.69;;;2.87;100.00
35023;BME280;21214;44.912;8.204;2023-02-19T04:12:12;100463.25;;;2.89;100.00
35023;BME280;21214;44.912;8.204;2023-02-19T04:14:43;100465.78;;;2.91;100.00
35023;BME280;21214;44.912;8.204;2023-02-19T04:17:13;100465.72;;;2.93;100.00
35023;BME280;21214;44.912;8.204;2023-02-19T04:19:41;100465.38;;;3.00;100.00
35023;BME280;21214;44.912;8.204;2023-02-19T04:22:06;100469.41;;;2.88;100.00
35023;BME280;21214;44.912;8.204;2023-02-19T04:24:37;100464.94;;;2.91;100.00
35023;BME280;21214;44.912;8.204;2023-02-19T04:27:03;100470.31;;;2.87;100.00
35023;BME280;21214;44.912;8.204;2023-02-19T04:29:29;100475.94;;;2.78;100.00
35023;BME280;21214;44.912;8.204;2023-02-19T04:31:55;100469.81;;;2.79;100.00
35023;BME280;21214;44.912;8.204;2023-02-19T04:34:20;100481.03;;;2.81;100.00
35023;BME280;21214;44.912;8.204;2023-02-19T04:36:45;100477.22;;;2.88;100.00
35023;BME280;21214;44.912;8.204;2023-02-19T04:39:11;100472.13;;;2.85;100.00
35023;BME280;21214;44.912;8.204;2023-02-19T04:41:36;100477.78;;;2.76;100.00
35023;BME280;21214;44.912;8.204;2023-02-19T04:44:01;100477.91;;;2.73;100.00
35023;BME280;21214;44.912;8.204;2023-02-19T04:46:27;100481.31;;;2.75;100.00
35023;BME280;21214;44.912;8.204;2023-02-19T04:48:52;100473.56;;;2.74;100.00
35023;BME280;21214;44.912;8.204;2023-02-19T04:51:17;100480.34;;;2.59;100.00
35023;BME280;21214;44.912;8.204;2023-02-19T04:53:43;100475.13;;;2.59;100.00
35023;BME280;21214;44.912;8.204;2023-02-19T04:56:09;100474.06;;;2.63;100.00
35023;BME280;21214;44.912;8.204;2023-02-19T04:58:35;100481.88;;;2.63;100.00
35023;BME280;21214;44.912;8.204;2023-02-19T05:01:01;100476.06;;;2.38;100.00
35023;BME280;21214;44.912;8.204;2023-02-19T05:03:26;100468.91;;;2.43;100.00
35023;BME280;21214;44.912;8.204;2023-02-19T05:05:51;100470.75;;;2.41;100.00
35023;BME280;21214;44.912;8.204;2023-02-19T05:08:17;100462.16;;;2.39;100.00
35023;BME280;21214;44.912;8.204;2023-02-19T05:10:42;100454.97;;;2.44;100.00
35023;BME280;21214;44.912;8.204;2023-02-19T05:13:07;100451.28;;;2.48;100.00
35023;BME280;21214;44.912;8.204;2023-02-19T05:15:33;100458.69;;;2.57;100.00
35023;BME280;21214;44.912;8.204;2023-02-19T05:17:58;100465.53;;;2.41;100.00
35023;BME280;21214;44.912;8.204;2023-02-19T05:20:23;100460.16;;;2.44;100.00
35023;BME280;21214;44.912;8.204;2023-02-19T05:22:49;100465.66;;;2.38;100.00
35023;BME280;21214;44.912;8.204;2023-02-19T05:25:14;100469.81;;;2.23;100.00
35023;BME280;21214;44.912;8.204;2023-02-19T05:27:39;100470.78;;;2.21;100.00
35023;BME280;21214;44.912;8.204;2023-02-19T05:30:05;100472.59;;;2.19;100.00
35023;BME280;21214;44.912;8.204;2023-02-19T05:32:30;100472.47;;;2.22;100.00
35023;BME280;21214;44.912;8.204;2023-02-19T05:34:56;100469.22;;;2.17;100.00
35023;BME280;21214;44.912;8.204;2023-02-19T05:37:21;100475.72;;;1.88;100.00
35023;BME280;21214;44.912;8.204;2023-02-19T05:39:47;100472.13;;;1.70;100.00
35023;BME280;21214;44.912;8.204;2023-02-19T05:42:13;100462.94;;;1.61;100.00
35023;BME280;21214;44.912;8.204;2023-02-19T05:44:39;100468.06;;;1.43;100.00
35023;BME280;21214;44.912;8.204;2023-02-19T05:47:04;100464.56;;;1.44;100.00
35023;BME280;21214;44.912;8.204;2023-02-19T05:49:30;100467.16;;;1.44;100.00
35023;BME280;21214;44.912;8.204;2023-02-19T05:51:55;100476.25;;;1.34;100.00
35023;BME280;21214;44.912;8.204;2023-02-19T05:54:22;100465.84;;;1.54;100.00
35023;BME280;21214;44.912;8.204;2023-02-19T05:56:47;100462.34;;;1.55;100.00
35023;BME280;21214;44.912;8.204;2023-02-19T05:59:14;100451.78;;;1.38;100.00
35023;BME280;21214;44.912;8.204;2023-02-19T06:01:41;100468.31;;;1.37;100.00
35023;BME280;21214;44.912;8.204;2023-02-19T06:04:07;100466.09;;;1.48;100.00
35023;BME280;21214;44.912;8.204;2023-02-19T06:06:34;100460.34;;;1.61;100.00
35023;BME280;21214;44.912;8.204;2023-02-19T06:08:59;100451.44;;;1.67;100.00
35023;BME280;21214;44.912;8.204;2023-02-19T06:11:24;100451.31;;;1.70;100.00
35023;BME280;21214;44.912;8.204;2023-02-19T06:13:50;100451.31;;;1.70;100.00
35023;BME280;21214;44.912;8.204;2023-02-19T06:16:15;100454.66;;;1.72;100.00
35023;BME280;21214;44.912;8.204;2023-02-19T06:18:42;100460.03;;;1.69;100.00
35023;BME280;21214;44.912;8.204;2023-02-19T06:21:08;100457.09;;;1.77;100.00
35023;BME280;21214;44.912;8.204;2023-02-19T06:23:34;100464.56;;;1.84;100.00
35023;BME280;21214;44.912;8.204;2023-02-19T06:28:43;100461.06;;;1.85;100.00
35023;BME280;21214;44.912;8.204;2023-02-19T06:31:09;100463.19;;;1.96;100.00
35023;BME280;21214;44.912;8.204;2023-02-19T06:33:35;100446.88;;;1.92;100.00
35023;BME280;21214;44.912;8.204;2023-02-19T06:36:01;100468.19;;;2.00;100.00
35023;BME280;21214;44.912;8.204;2023-02-19T06:38:27;100462.38;;;2.14;100.00
35023;BME280;21214;44.912;8.204;2023-02-19T06:40:53;100456.84;;;2.22;100.00
35023;BME280;21214;44.912;8.204;2023-02-19T06:43:18;100460.88;;;2.29;100.00
35023;BME280;21214;44.912;8.204;2023-02-19T06:45:44;100464.38;;;2.28;100.00
35023;BME280;21214;44.912;8.204;2023-02-19T06:48:09;100465.56;;;2.21;100.00
35023;BME280;21214;44.912;8.204;2023-02-19T06:50:35;100464.34;;;2.09;100.00
35023;BME280;21214;44.912;8.204;2023-02-19T06:53:00;100457.13;;;1.95;100.00
35023;BME280;21214;44.912;8.204;2023-02-19T06:55:25;100459.09;;;1.90;100.00
35023;BME280;21214;44.912;8.204;2023-02-19T06:57:51;100464.03;;;1.96;100.00
35023;BME280;21214;44.912;8.204;2023-02-19T07:00:16;100463.28;;;1.94;100.00
35023;BME280;21214;44.912;8.204;2023-02-19T07:02:42;100466.00;;;1.91;100.00
35023;BME280;21214;44.912;8.204;2023-02-19T07:05:08;100462.44;;;1.94;100.00
35023;BME280;21214;44.912;8.204;2023-02-19T07:07:33;100465.28;;;1.88;100.00
35023;BME280;21214;44.912;8.204;2023-02-19T07:09:59;100468.22;;;1.80;100.00
35023;BME280;21214;44.912;8.204;2023-02-19T07:12:24;100463.13;;;1.97;100.00
35023;BME280;21214;44.912;8.204;2023-02-19T07:14:49;100476.28;;;1.94;100.00
35023;BME280;21214;44.912;8.204;2023-02-19T07:17:14;100489.56;;;1.68;100.00
35023;BME280;21214;44.912;8.204;2023-02-19T07:19:40;100482.53;;;1.70;100.00
35023;BME280;21214;44.912;8.204;2023-02-19T07:22:05;100473.41;;;1.80;100.00
35023;BME280;21214;44.912;8.204;2023-02-19T07:24:31;100486.16;;;1.66;100.00
35023;BME280;21214;44.912;8.204;2023-02-19T07:26:56;100493.06;;;1.67;100.00
35023;BME280;21214;44.912;8.204;2023-02-19T07:29:21;100481.19;;;1.60;100.00
35023;BME280;21214;44.912;8.204;2023-02-19T07:31:47;100474.34;;;1.59;100.00
35023;BME280;21214;44.912;8.204;2023-02-19T07:34:12;100481.84;;;1.65;100.00
35023;BME280;21214;44.912;8.204;2023-02-19T07:36:37;100484.09;;;1.74;100.00
35023;BME280;21214;44.912;8.204;2023-02-19T07:39:03;100481.63;;;1.91;100.00
35023;BME280;21214;44.912;8.204;2023-02-19T07:41:28;100477.19;;;1.93;100.00
35023;BME280;21214;44.912;8.204;2023-02-19T07:43:56;100493.31;;;2.01;100.00
35023;BME280;21214;44.912;8.204;2023-02-19T07:46:21;100478.59;;;2.21;100.00
35023;BME280;21214;44.912;8.204;2023-02-19T07:48:47;100490.81;;;2.19;100.00
35023;BME280;21214;44.912;8.204;2023-02-19T07:51:13;100486.38;;;2.41;100.00
35023;BME280;21214;44.912;8.204;2023-02-19T07:53:41;100474.66;;;2.31;100.00
35023;BME280;21214;44.912;8.204;2023-02-19T07:56:07;100487.66;;;2.51;100.00
35023;BME280;21214;44.912;8.204;2023-02-19T07:58:32;100486.31;;;2.61;100.00
35023;BME280;21214;44.912;8.204;2023-02-19T08:01:05;100468.50;;;2.71;100.00
35023;BME280;21214;44.912;8.204;2023-02-19T08:03:30;100479.59;;;2.93;100.00
35023;BME280;21214;44.912;8.204;2023-02-19T08:05:56;100486.53;;;2.94;100.00
35023;BME280;21214;44.912;8.204;2023-02-19T08:08:22;100479.44;;;3.15;100.00
35023;BME280;21214;44.912;8.204;2023-02-19T08:10:47;100478.84;;;3.27;100.00
35023;BME280;21214;44.912;8.204;2023-02-19T08:13:31;100469.94;;;3.31;100.00
35023;BME280;21214;44.912;8.204;2023-02-19T08:18:24;100483.59;;;3.36;100.00
35023;BME280;21214;44.912;8.204;2023-02-19T08:20:50;100474.13;;;3.52;100.00
35023;BME280;21214;44.912;8.204;2023-02-19T08:23:16;100462.13;;;3.48;100.00
35023;BME280;21214;44.912;8.204;2023-02-19T08:25:41;100452.69;;;3.63;100.00
35023;BME280;21214;44.912;8.204;2023-02-19T08:28:07;100464.72;;;3.65;100.00
35023;BME280;21214;44.912;8.204;2023-02-19T08:30:33;100472.97;;;3.75;100.00
35023;BME280;21214;44.912;8.204;2023-02-19T08:32:59;100476.97;;;3.82;100.00
35023;BME280;21214;44.912;8.204;2023-02-19T08:35:25;100468.28;;;3.64;100.00
35023;BME280;21214;44.912;8.204;2023-02-19T08:37:53;100476.66;;;3.71;100.00
35023;BME280;21214;44.912;8.204;2023-02-19T08:40:19;100486.56;;;3.82;100.00
35023;BME280;21214;44.912;8.204;2023-02-19T08:42:44;100493.91;;;3.91;100.00
35023;BME280;21214;44.912;8.204;2023-02-19T08:45:10;100485.13;;;4.09;100.00
35023;BME280;21214;44.912;8.204;2023-02-19T08:47:35;100472.34;;;4.20;100.00
35023;BME280;21214;44.912;8.204;2023-02-19T08:50:02;100483.84;;;4.33;100.00
35023;BME280;21214;44.912;8.204;2023-02-19T08:52:29;100481.38;;;4.47;100.00
35023;BME280;21214;44.912;8.204;2023-02-19T08:54:54;100484.25;;;4.59;100.00
35023;BME280;21214;44.912;8.204;2023-02-19T08:57:20;100488.81;;;4.71;100.00
35023;BME280;21214;44.912;8.204;2023-02-19T08:59:45;100495.06;;;4.84;100.00
35023;BME280;21214;44.912;8.204;2023-02-19T09:02:11;100490.84;;;4.97;100.00
35023;BME280;21214;44.912;8.204;2023-02-19T09:04:37;100477.84;;;5.11;100.00
35023;BME280;21214;44.912;8.204;2023-02-19T09:07:02;100470.97;;;5.24;100.00
35023;BME280;21214;44.912;8.204;2023-02-19T09:09:32;100469.00;;;5.44;100.00
35023;BME280;21214;44.912;8.204;2023-02-19T09:11:58;100474.03;;;5.62;100.00
35023;BME280;21214;44.912;8.204;2023-02-19T09:14:24;100479.56;;;5.72;100.00
35023;BME280;21214;44.912;8.204;2023-02-19T09:16:49;100473.47;;;5.87;100.00
35023;BME280;21214;44.912;8.204;2023-02-19T09:19:14;100476.94;;;6.02;100.00
35023;BME280;21214;44.912;8.204;2023-02-19T09:21:41;100472.66;;;6.15;100.00
35023;BME280;21214;44.912;8.204;2023-02-19T09:24:07;100473.69;;;6.27;100.00
35023;BME280;21214;44.912;8.204;2023-02-19T09:26:32;100473.31;;;6.33;100.00
35023;BME280;21214;44.912;8.204;2023-02-19T09:28:57;100465.09;;;6.39;100.00
35023;BME280;21214;44.912;8.204;2023-02-19T09:31:23;100455.19;;;6.30;100.00
35023;BME280;21214;44.912;8.204;2023-02-19T09:33:48;100465.28;;;6.36;100.00
35023;BME280;21214;44.912;8.204;2023-02-19T09:36:14;100450.47;;;6.49;100.00
35023;BME280;21214;44.912;8.204;2023-02-19T09:38:40;100444.66;;;6.58;100.00
35023;BME280;21214;44.912;8.204;2023-02-19T09:41:07;100457.00;;;6.70;100.00
35023;BME280;21214;44.912;8.204;2023-02-19T09:43:33;100457.16;;;6.81;100.00
35023;BME280;21214;44.912;8.204;2023-02-19T09:46:00;100462.03;;;6.87;100.00
35023;BME280;21214;44.912;8.204;2023-02-19T09:48:26;100453.94;;;6.90;100.00
35023;BME280;21214;44.912;8.204;2023-02-19T09:50:52;100447.59;;;6.94;100.00
35023;BME280;21214;44.912;8.204;2023-02-19T09:53:22;100440.25;;;6.99;100.00
35023;BME280;21214;44.912;8.204;2023-02-19T09:55:49;100438.19;;;7.05;100.00
35023;BME280;21214;44.912;8.204;2023-02-19T10:00:41;100438.47;;;7.27;100.00
35023;BME280;21214;44.912;8.204;2023-02-19T10:03:10;100430.72;;;7.38;100.00
35023;BME280;21214;44.912;8.204;2023-02-19T10:05:37;100439.56;;;7.50;100.00
35023;BME280;21214;44.912;8.204;2023-02-19T10:08:04;100435.16;;;7.50;100.00
35023;BME280;21214;44.912;8.204;2023-02-19T10:10:31;100427.00;;;7.67;100.00
35023;BME280;21214;44.912;8.204;2023-02-19T10:13:00;100435.84;;;7.79;100.00
35023;BME280;21214;44.912;8.204;2023-02-19T10:15:35;100427.63;;;7.96;100.00
35023;BME280;21214;44.912;8.204;2023-02-19T10:18:02;100437.72;;;8.02;100.00
35023;BME280;21214;44.912;8.204;2023-02-19T10:20:28;100438.59;;;8.15;100.00
35023;BME280;21214;44.912;8.204;2023-02-19T10:22:57;100427.97;;;8.30;100.00
35023;BME280;21214;44.912;8.204;2023-02-19T10:25:23;100433.94;;;8.44;100.00
35023;BME280;21214;44.912;8.204;2023-02-19T10:27:48;100421.72;;;8.56;100.00
35023;BME280;21214;44.912;8.204;2023-02-19T10:30:18;100422.63;;;8.68;100.00
35023;BME280;21214;44.912;8.204;2023-02-19T10:32:58;100419.63;;;8.85;100.00
35023;BME280;21214;44.912;8.204;2023-02-19T10:35:24;100416.75;;;9.00;100.00
35023;BME280;21214;44.912;8.204;2023-02-19T10:37:49;100420.28;;;9.12;100.00
35023;BME280;21214;44.912;8.204;2023-02-19T10:40:17;100399.97;;;9.25;100.00
35023;BME280;21214;44.912;8.204;2023-02-19T10:42:44;100400.75;;;9.38;100.00
35023;BME280;21214;44.912;8.204;2023-02-19T10:45:11;100406.19;;;9.48;100.00
35023;BME280;21214;44.912;8.204;2023-02-19T10:47:41;100402.47;;;9.62;100.00
35023;BME280;21214;44.912;8.204;2023-02-19T10:50:22;100398.81;;;9.75;100.00
35023;BME280;21214;44.912;8.204;2023-02-19T10:52:51;100387.44;;;9.86;100.00
35023;BME280;21214;44.912;8.204;2023-02-19T10:57:43;100389.97;;;10.10;100.00
35023;BME280;21214;44.912;8.204;2023-02-19T11:02:40;100371.19;;;10.37;100.00
35023;BME280;21214;44.912;8.204;2023-02-19T11:10:19;100362.25;;;10.71;100.00
35023;BME280;21214;44.912;8.204;2023-02-19T11:12:46;100350.94;;;10.80;100.00
35023;BME280;21214;44.912;8.204;2023-02-19T11:15:18;100353.28;;;10.94;100.00
35023;BME280;21214;44.912;8.204;2023-02-19T11:17:44;100348.53;;;11.09;100.00
35023;BME280;21214;44.912;8.204;2023-02-19T11:20:13;100344.63;;;11.24;100.00
35023;BME280;21214;44.912;8.204;2023-02-19T11:22:41;100326.66;;;11.39;100.00
35023;BME280;21214;44.912;8.204;2023-02-19T11:25:18;100322.25;;;11.49;100.00
35023;BME280;21214;44.912;8.204;2023-02-19T11:27:54;100328.31;;;11.61;100.00
35023;BME280;21214;44.912;8.204;2023-02-19T11:32:56;100312.19;;;11.84;100.00
35023;BME280;21214;44.912;8.204;2023-02-19T11:35:37;100309.31;;;11.97;100.00
35023;BME280;21214;44.912;8.204;2023-02-19T11:38:04;100306.72;;;12.07;100.00
35023;BME280;21214;44.912;8.204;2023-02-19T11:40:38;100300.06;;;12.22;100.00
35023;BME280;21214;44.912;8.204;2023-02-19T11:45:34;100283.41;;;12.50;100.00
35023;BME280;21214;44.912;8.204;2023-02-19T12:06:43;100254.94;;;13.48;100.00
35023;BME280;21214;44.912;8.204;2023-02-19T12:17:04;100232.97;;;13.93;100.00
35023;BME280;21214;44.912;8.204;2023-02-19T12:22:30;100213.31;;;14.13;100.00
35023;BME280;21214;44.912;8.204;2023-02-19T12:37:57;100190.81;;;14.70;100.00
35023;BME280;21214;44.912;8.204;2023-02-19T12:40:49;100193.50;;;14.79;100.00
35023;BME280;21214;44.912;8.204;2023-02-19T12:43:17;100190.41;;;14.83;100.00
35023;BME280;21214;44.912;8.204;2023-02-19T12:50:38;100175.91;;;15.03;100.00
35023;BME280;21214;44.912;8.204;2023-02-19T12:53:47;100177.47;;;15.14;100.00
35023;BME280;21214;44.912;8.204;2023-02-19T12:55:52;100175.38;;;15.26;100.00
35023;BME280;21214;44.912;8.204;2023-02-19T12:58:21;100171.09;;;15.33;100.00
35023;BME280;21214;44.912;8.204;2023-02-19T13:00:49;100170.47;;;15.39;100.00
35023;BME280;21214;44.912;8.204;2023-02-19T13:03:18;100165.50;;;15.44;100.00
35023;BME280;21214;44.912;8.204;2023-02-19T13:06:05;100155.56;;;15.46;100.00
35023;BME280;21214;44.912;8.204;2023-02-19T13:08:39;100157.31;;;15.55;100.00
35023;BME280;21214;44.912;8.204;2023-02-19T13:13:37;100138.09;;;15.77;100.00
35023;BME280;21214;44.912;8.204;2023-02-19T13:16:09;100140.94;;;15.92;100.00
35023;BME280;21214;44.912;8.204;2023-02-19T13:18:43;100139.47;;;15.97;100.00
35023;BME280;21214;44.912;8.204;2023-02-19T13:21:10;100141.13;;;15.98;100.00
35023;BME280;21214;44.912;8.204;2023-02-19T13:23:36;100138.50;;;16.07;100.00
35023;BME280;21214;44.912;8.204;2023-02-19T13:36:57;100126.91;;;16.64;99.53
35023;BME280;21214;44.912;8.204;2023-02-19T13:39:23;100123.88;;;16.75;98.27
35023;BME280;21214;44.912;8.204;2023-02-19T13:41:52;100119.19;;;16.86;97.38
35023;BME280;21214;44.912;8.204;2023-02-19T13:44:29;100106.53;;;16.88;96.97
35023;BME280;21214;44.912;8.204;2023-02-19T13:46:56;100115.22;;;16.90;97.41
35023;BME280;21214;44.912;8.204;2023-02-19T13:49:23;100107.69;;;16.93;97.18
35023;BME280;21214;44.912;8.204;2023-02-19T13:51:49;100110.38;;;16.93;97.74
35023;BME280;21214;44.912;8.204;2023-02-19T13:54:25;100105.50;;;16.97;98.06
35023;BME280;21214;44.912;8.204;2023-02-19T13:59:37;100096.50;;;16.98;97.11
35023;BME280;21214;44.912;8.204;2023-02-19T14:14:43;100105.56;;;16.48;100.00
35023;BME280;21214;44.912;8.204;2023-02-19T14:24:51;100093.56;;;16.28;100.00
35023;BME280;21214;44.912;8.204;2023-02-19T14:27:17;100099.25;;;16.25;100.00
35023;BME280;21214;44.912;8.204;2023-02-19T14:29:42;100103.22;;;16.21;100.00
35023;BME280;21214;44.912;8.204;2023-02-19T14:32:10;100119.84;;;16.15;100.00
35023;BME280;21214;44.912;8.204;2023-02-19T14:34:42;100111.53;;;16.10;100.00
35023;BME280;21214;44.912;8.204;2023-02-19T14:37:10;100118.03;;;16.07;100.00
35023;BME280;21214;44.912;8.204;2023-02-19T14:39:40;100110.50;;;16.03;100.00
35023;BME280;21214;44.912;8.204;2023-02-19T14:42:11;100116.19;;;16.00;100.00
35023;BME280;21214;44.912;8.204;2023-02-19T14:44:47;100118.50;;;15.94;100.00
35023;BME280;21214;44.912;8.204;2023-02-19T14:47:14;100115.16;;;15.92;100.00
35023;BME280;21214;44.912;8.204;2023-02-19T14:52:09;100108.81;;;15.85;100.00
35023;BME280;21214;44.912;8.204;2023-02-19T14:57:01;100104.16;;;15.79;100.00
35023;BME280;21214;44.912;8.204;2023-02-19T14:59:28;100119.13;;;15.72;100.00
35023;BME280;21214;44.912;8.204;2023-02-19T15:04:20;100109.44;;;15.63;100.00
35023;BME280;21214;44.912;8.204;2023-02-19T15:06:46;100114.06;;;15.61;100.00
35023;BME280;21214;44.912;8.204;2023-02-19T15:09:11;100110.09;;;15.57;100.00
35023;BME280;21214;44.912;8.204;2023-02-19T15:11:37;100121.91;;;15.54;100.00
35023;BME280;21214;44.912;8.204;2023-02-19T15:14:06;100111.03;;;15.48;100.00
35023;BME280;21214;44.912;8.204;2023-02-19T15:16:33;100113.34;;;15.43;100.00